Time;durP1;ratioP1;P1;durP2;ratioP2;P2;SDS_P1;SDS_P2;PMS_P1;PMS_P2;Temp;Humidity;BMP_temperature;BMP_pressure;BME280_temperature;BME280_humidity;BME280_pressure;Samples;Min_cycle;Max_cycle;Signal;HPM_P1;HPM_P2
2023/10/06 00:02:20;;;;;;;6.73;5.63;;;;;;;7.57;100.00;97993.31;5058480;28;20226;-57
2023/10/06 00:04:51;;;;;;;9.53;6.50;;;;;;;7.51;100.00;98000.03;5058350;28;20208;-61
2023/10/06 00:07:20;;;;;;;7.00;6.30;;;;;;;7.47;100.00;97998.66;5060204;28;20305;-56
2023/10/06 00:09:50;;;;;;;6.87;5.90;;;;;;;7.48;100.00;98002.09;5063271;28;20219;-60
2023/10/06 00:12:18;;;;;;;8.07;5.90;;;;;;;7.44;100.00;98004.22;5002943;28;20748;-58
2023/10/06 00:14:48;;;;;;;6.77;6.00;;;;;;;7.41;100.00;98008.94;5058604;28;20195;-55
2023/10/06 00:17:17;;;;;;;5.63;5.03;;;;;;;7.36;100.00;98002.28;4960224;28;20796;-59
2023/10/06 00:19:47;;;;;;;7.17;6.17;;;;;;;7.30;100.00;97994.97;5054754;28;20203;-58
2023/10/06 00:22:18;;;;;;;5.80;5.30;;;;;;;7.23;100.00;98002.59;5064589;28;20347;-60
2023/10/06 00:24:47;;;;;;;8.23;5.67;;;;;;;7.21;100.00;97993.19;5062539;28;20202;-57
2023/10/06 00:27:20;;;;;;;6.00;5.23;;;;;;;7.09;100.00;97993.31;5056971;28;20319;-60
2023/10/06 00:29:48;;;;;;;6.90;5.83;;;;;;;7.05;100.00;97997.22;5064840;28;20802;-59
2023/10/06 00:32:23;;;;;;;5.23;4.73;;;;;;;7.02;100.00;97999.31;5062136;28;20293;-58
2023/10/06 00:34:52;;;;;;;8.97;5.37;;;;;;;6.91;100.00;98003.75;5067873;28;20267;-59
2023/10/06 00:37:22;;;;;;;6.47;5.87;;;;;;;6.83;100.00;98008.09;5055009;28;20222;-59
2023/10/06 00:39:52;;;;;;;6.53;5.60;;;;;;;6.79;100.00;98010.97;5062132;28;20206;-60
2023/10/06 00:42:22;;;;;;;7.40;5.30;;;;;;;6.70;100.00;98011.00;5003824;28;20246;-57
2023/10/06 00:44:50;;;;;;;7.57;5.30;;;;;;;6.65;100.00;98000.88;5061369;28;20214;-60
2023/10/06 00:47:18;;;;;;;5.73;5.23;;;;;;;6.59;100.00;97999.59;4953032;28;20648;-59
2023/10/06 00:49:46;;;;;;;7.40;5.43;;;;;;;6.54;100.00;97995.75;5066678;28;20223;-58
2023/10/06 00:52:15;;;;;;;6.37;5.77;;;;;;;6.48;100.00;97997.97;5062509;28;20206;-59
2023/10/06 00:54:44;;;;;;;5.90;5.23;;;;;;;6.40;100.00;98002.25;5056790;28;20198;-58
2023/10/06 00:57:12;;;;;;;5.93;5.37;;;;;;;6.36;100.00;98004.31;5054735;28;20254;-59
2023/10/06 00:59:41;;;;;;;8.23;5.63;;;;;;;6.32;100.00;98002.91;5060754;28;20203;-59
2023/10/06 01:02:11;;;;;;;6.87;5.43;;;;;;;6.31;100.00;98006.53;5058620;28;20569;-59
2023/10/06 01:04:45;;;;;;;6.27;5.43;;;;;;;6.26;100.00;98004.31;5060459;28;20288;-59
2023/10/06 01:07:15;;;;;;;5.53;4.87;;;;;;;6.26;100.00;98004.31;5058210;28;20226;-58
2023/10/06 01:09:56;;;;;;;5.83;4.83;;;;;;;6.22;100.00;98001.13;5058157;28;20289;-60
2023/10/06 01:12:25;;;;;;;6.73;6.00;;;;;;;6.17;100.00;98007.75;5060044;28;20595;-58
2023/10/06 01:15:05;;;;;;;6.40;5.80;;;;;;;6.11;100.00;97997.75;5060451;28;20281;-59
2023/10/06 01:17:33;;;;;;;6.30;5.10;;;;;;;6.11;100.00;98003.88;5004575;28;20230;-59
2023/10/06 01:20:03;;;;;;;6.40;5.83;;;;;;;6.11;100.00;97998.59;5061283;28;20221;-57
2023/10/06 01:22:41;;;;;;;6.23;5.63;;;;;;;6.08;100.00;98004.16;4957304;28;20214;-58
2023/10/06 01:25:13;;;;;;;6.30;5.40;;;;;;;6.12;100.00;98008.16;5059155;28;20203;-58
2023/10/06 01:27:43;;;;;;;6.23;5.57;;;;;;;6.09;100.00;97997.91;5057204;28;20215;-59
2023/10/06 01:30:18;;;;;;;7.33;5.07;;;;;;;6.08;100.00;98004.16;5066222;28;20284;-59
2023/10/06 01:32:49;;;;;;;7.37;5.83;;;;;;;6.04;100.00;98011.47;5058297;28;20203;-57
2023/10/06 01:35:21;;;;;;;6.57;4.97;;;;;;;6.05;100.00;98007.03;5058243;28;20233;-59
2023/10/06 01:37:58;;;;;;;7.13;6.07;;;;;;;6.06;100.00;98006.91;5054891;28;20642;-58
2023/10/06 01:40:43;;;;;;;7.00;6.17;;;;;;;6.04;100.00;98006.19;5060041;28;20210;-59
2023/10/06 01:43:12;;;;;;;6.30;5.70;;;;;;;5.90;100.00;98012.63;5059938;28;20217;-59
2023/10/06 01:45:44;;;;;;;5.53;5.00;;;;;;;5.86;100.00;98013.03;5033189;28;20806;-56
2023/10/06 01:48:23;;;;;;;5.30;4.50;;;;;;;5.87;100.00;98012.06;5041526;28;20769;-57
2023/10/06 01:50:54;;;;;;;5.27;4.80;;;;;;;5.86;100.00;98013.03;5059511;28;20218;-60
2023/10/06 01:53:32;;;;;;;4.93;4.40;;;;;;;5.82;100.00;98014.25;5022531;28;20282;-59
2023/10/06 01:56:06;;;;;;;5.23;4.73;;;;;;;5.77;100.00;98010.22;5024198;28;20293;-58
2023/10/06 01:58:38;;;;;;;5.27;4.80;;;;;;;5.71;100.00;98002.88;5061831;28;20244;-60
2023/10/06 02:01:08;;;;;;;6.43;5.00;;;;;;;5.75;100.00;98021.88;5061909;28;20195;-60
2023/10/06 02:03:40;;;;;;;5.63;5.03;;;;;;;5.70;100.00;98017.00;5056535;28;20289;-61
2023/10/06 02:06:16;;;;;;;4.70;4.30;;;;;;;5.69;100.00;98023.22;5059488;28;20214;-60
2023/10/06 02:08:49;;;;;;;6.03;5.37;;;;;;;5.69;100.00;98010.06;5048553;28;20209;-58
2023/10/06 02:11:17;;;;;;;6.93;5.43;;;;;;;5.71;100.00;98010.78;5062631;28;20312;-61
2023/10/06 02:13:45;;;;;;;5.53;4.93;;;;;;;5.68;100.00;98013.66;5061722;28;20287;-58
2023/10/06 02:16:13;;;;;;;6.03;4.73;;;;;;;5.64;100.00;98005.19;5059490;28;20338;-58
2023/10/06 02:18:41;;;;;;;6.87;5.60;;;;;;;5.64;100.00;98004.38;5014746;28;20218;-59
2023/10/06 02:21:13;;;;;;;6.47;4.97;;;;;;;5.60;100.00;97995.09;5051539;28;20214;-57
2023/10/06 02:23:43;;;;;;;5.70;4.97;;;;;;;5.56;100.00;97991.88;4983039;28;21615;-58
2023/10/06 02:26:13;;;;;;;6.90;5.43;;;;;;;5.58;100.00;97989.13;5050142;28;20927;-61
2023/10/06 02:28:48;;;;;;;6.60;5.30;;;;;;;5.53;100.00;97989.53;5057572;28;20453;-60
2023/10/06 02:31:16;;;;;;;5.17;4.63;;;;;;;5.51;100.00;97988.81;5061721;28;20275;-59
2023/10/06 02:33:48;;;;;;;9.37;5.30;;;;;;;5.47;100.00;97982.16;5057621;28;20234;-59
2023/10/06 02:36:21;;;;;;;6.83;5.00;;;;;;;5.44;100.00;97985.06;5059091;28;20293;-59
2023/10/06 02:38:49;;;;;;;8.33;5.33;;;;;;;5.43;100.00;97984.22;5054817;28;20199;-60
2023/10/06 02:41:20;;;;;;;5.87;5.27;;;;;;;5.42;100.00;97985.19;5053130;28;20215;-58
2023/10/06 02:43:48;;;;;;;4.83;4.43;;;;;;;5.35;100.00;97978.78;5052955;28;20226;-57
2023/10/06 02:46:20;;;;;;;5.10;4.47;;;;;;;5.29;100.00;97967.00;5061822;28;20235;-58
2023/10/06 02:48:51;;;;;;;5.87;4.30;;;;;;;5.27;100.00;97973.38;5060723;28;20222;-59
2023/10/06 02:51:20;;;;;;;4.93;4.23;;;;;;;5.26;100.00;97990.09;5059996;28;20272;-60
2023/10/06 02:53:50;;;;;;;4.43;4.00;;;;;;;5.24;100.00;97987.59;5011587;28;21055;-60
2023/10/06 02:56:28;;;;;;;4.53;4.20;;;;;;;5.19;100.00;97988.00;5061191;28;20228;-59
2023/10/06 02:59:06;;;;;;;6.20;4.93;;;;;;;5.24;100.00;98000.72;4958310;28;21874;-60
2023/10/06 03:01:38;;;;;;;6.67;4.50;;;;;;;5.26;100.00;98000.59;5064681;28;20267;-57
2023/10/06 03:04:07;;;;;;;5.33;4.87;;;;;;;5.20;100.00;98004.56;5059849;28;20231;-60
2023/10/06 03:06:35;;;;;;;9.00;5.90;;;;;;;5.19;100.00;98003.75;5060940;28;20313;-58
2023/10/06 03:09:07;;;;;;;7.30;5.93;;;;;;;5.18;100.00;98007.34;5061056;28;20227;-57
2023/10/06 03:11:38;;;;;;;6.73;6.10;;;;;;;5.21;100.00;98006.25;5063706;28;20720;-58
2023/10/06 03:14:07;;;;;;;7.87;6.93;;;;;;;5.18;100.00;98001.25;5058159;28;20195;-59
2023/10/06 03:16:39;;;;;;;7.37;6.50;;;;;;;5.19;100.00;98001.13;5062406;28;20227;-59
2023/10/06 03:19:12;;;;;;;8.07;6.63;;;;;;;5.20;100.00;98004.56;5057456;28;20310;-57
2023/10/06 03:21:45;;;;;;;6.93;5.63;;;;;;;5.23;100.00;98006.94;5061180;28;20229;-58
2023/10/06 03:24:31;;;;;;;6.70;5.53;;;;;;;5.20;100.00;97997.53;5059109;28;20296;-59
2023/10/06 03:27:04;;;;;;;5.87;5.33;;;;;;;5.15;100.00;97997.09;5062468;28;20414;-59
2023/10/06 03:29:44;;;;;;;5.80;4.37;;;;;;;5.10;100.00;97998.44;5009077;28;20546;-60
2023/10/06 03:32:14;;;;;;;4.20;3.83;;;;;;;5.02;100.00;97994.66;5060315;28;20222;-59
2023/10/06 03:34:43;;;;;;;3.97;3.67;;;;;;;4.92;100.00;97989.34;4962035;28;20215;-60
2023/10/06 03:37:15;;;;;;;4.17;3.80;;;;;;;4.86;100.00;97992.50;4994051;28;20254;-60
2023/10/06 03:39:50;;;;;;;4.63;4.30;;;;;;;4.84;100.00;97997.03;5062487;28;20230;-59
2023/10/06 03:42:20;;;;;;;5.90;5.40;;;;;;;4.81;100.00;97989.41;5025591;28;20653;-60
2023/10/06 03:44:53;;;;;;;5.67;5.07;;;;;;;4.83;100.00;97984.03;4993956;28;20831;-59
2023/10/06 03:47:20;;;;;;;4.67;4.27;;;;;;;4.82;100.00;97985.81;5062908;28;20291;-58
2023/10/06 03:49:48;;;;;;;8.23;6.27;;;;;;;4.79;100.00;97988.72;5010289;28;21335;-58
2023/10/06 03:52:16;;;;;;;7.33;6.63;;;;;;;4.71;100.00;97997.22;5060759;28;20233;-60
2023/10/06 03:54:46;;;;;;;8.50;6.87;;;;;;;4.66;100.00;97998.53;4995288;28;20903;-58
2023/10/06 03:57:15;;;;;;;8.33;7.10;;;;;;;4.56;100.00;97999.31;5061292;28;20261;-59
2023/10/06 03:59:45;;;;;;;9.60;6.90;;;;;;;4.55;100.00;98005.50;5007025;28;20883;-59
2023/10/06 04:02:13;;;;;;;8.13;7.27;;;;;;;4.53;100.00;98004.81;4992473;28;20233;-57
2023/10/06 04:04:42;;;;;;;8.93;6.20;;;;;;;4.65;100.00;97989.84;5065643;28;20203;-59
2023/10/06 04:07:10;;;;;;;7.03;5.63;;;;;;;4.73;100.00;97987.41;4940133;28;21981;-58
2023/10/06 04:09:39;;;;;;;6.57;5.60;;;;;;;4.85;100.00;98001.31;5065068;28;20293;-58
2023/10/06 04:12:06;;;;;;;7.20;5.10;;;;;;;4.74;100.00;98001.41;5056279;28;20610;-59
2023/10/06 04:14:35;;;;;;;8.03;5.40;;;;;;;4.76;100.00;98002.09;5061446;28;20279;-59
2023/10/06 04:17:05;;;;;;;7.87;6.07;;;;;;;4.73;100.00;97995.28;5030465;28;20662;-59
2023/10/06 04:19:34;;;;;;;9.93;6.20;;;;;;;4.71;100.00;98005.09;5052911;28;20204;-59
2023/10/06 04:22:03;;;;;;;7.77;5.90;;;;;;;4.74;100.00;98001.41;5024729;28;20204;-60
2023/10/06 04:24:31;;;;;;;8.40;6.83;;;;;;;4.72;100.00;98009.38;5049134;28;20257;-61
2023/10/06 04:26:59;;;;;;;8.87;7.87;;;;;;;4.72;100.00;98006.75;5053419;28;20217;-60
2023/10/06 04:29:26;;;;;;;6.57;6.00;;;;;;;4.76;100.00;98000.28;5057971;28;20223;-58
2023/10/06 04:31:55;;;;;;;7.60;6.83;;;;;;;4.80;100.00;98005.28;5028456;28;21183;-60
2023/10/06 04:34:27;;;;;;;8.10;6.77;;;;;;;4.78;100.00;98015.94;5038015;28;20195;-60
2023/10/06 04:36:56;;;;;;;5.73;5.23;;;;;;;4.76;100.00;98020.47;5060212;28;20227;-60
2023/10/06 04:39:26;;;;;;;6.43;5.73;;;;;;;4.80;100.00;98013.16;5061395;28;20281;-58
2023/10/06 04:41:55;;;;;;;6.13;5.50;;;;;;;4.78;100.00;98008.06;4997990;28;21992;-59
2023/10/06 04:44:23;;;;;;;6.90;6.20;;;;;;;4.84;100.00;98004.06;5027691;28;20219;-61
2023/10/06 04:46:52;;;;;;;11.10;7.50;;;;;;;4.88;100.00;97997.59;5028858;28;20312;-57
2023/10/06 04:49:20;;;;;;;7.63;6.93;;;;;;;4.87;100.00;98004.66;5037057;28;20211;-57
2023/10/06 04:51:50;;;;;;;11.67;7.13;;;;;;;4.85;100.00;97998.69;5052040;28;20210;-59
2023/10/06 04:54:20;;;;;;;7.33;6.73;;;;;;;4.85;100.00;98003.94;5030253;28;20211;-59
2023/10/06 04:56:52;;;;;;;7.50;6.70;;;;;;;4.84;100.00;98004.06;5044172;28;20339;-59
2023/10/06 04:59:20;;;;;;;7.07;6.47;;;;;;;4.75;100.00;98001.25;5033624;28;20264;-58
2023/10/06 05:01:47;;;;;;;8.03;7.00;;;;;;;4.71;100.00;97991.97;5059658;28;20204;-59
2023/10/06 05:04:15;;;;;;;6.53;5.93;;;;;;;4.75;100.00;97997.81;5056531;28;20214;-60
2023/10/06 05:06:43;;;;;;;7.37;6.63;;;;;;;4.69;100.00;97991.25;5044676;28;20747;-60
2023/10/06 05:09:13;;;;;;;8.93;6.53;;;;;;;4.70;100.00;98008.69;5025037;28;20207;-60
2023/10/06 05:11:40;;;;;;;10.00;6.43;;;;;;;4.76;100.00;98007.34;5057152;28;20305;-59
2023/10/06 05:14:09;;;;;;;38.07;10.50;;;;;;;4.70;100.00;98002.56;4932169;28;20215;-58
2023/10/06 05:16:37;;;;;;;16.90;7.80;;;;;;;4.68;100.00;98007.13;5060206;28;20313;-60
2023/10/06 05:19:07;;;;;;;12.43;6.70;;;;;;;4.65;100.00;98005.59;5056069;28;20196;-60
2023/10/06 05:21:36;;;;;;;8.83;4.93;;;;;;;4.68;100.00;98017.63;5063042;28;20295;-58
2023/10/06 05:24:04;;;;;;;5.77;5.17;;;;;;;4.71;100.00;98020.00;5000074;28;20677;-59
2023/10/06 05:26:33;;;;;;;5.30;4.90;;;;;;;4.70;100.00;98018.31;5061066;28;20765;-57
2023/10/06 05:29:01;;;;;;;6.37;5.77;;;;;;;4.71;100.00;98018.22;5010142;28;20209;-59
2023/10/06 05:31:29;;;;;;;5.00;4.70;;;;;;;4.68;100.00;98015.00;5063019;28;20622;-60
2023/10/06 05:33:57;;;;;;;6.07;5.57;;;;;;;4.76;100.00;98023.09;5052028;28;20275;-59
2023/10/06 05:36:25;;;;;;;6.00;5.57;;;;;;;4.73;100.00;98029.41;5061466;28;20312;-59
2023/10/06 05:38:55;;;;;;;6.47;5.80;;;;;;;4.75;100.00;98026.69;5004082;28;20708;-58
2023/10/06 05:41:23;;;;;;;5.43;5.03;;;;;;;4.77;100.00;98025.59;5062579;28;20203;-59
2023/10/06 05:43:52;;;;;;;8.20;5.37;;;;;;;4.81;100.00;98023.56;5063790;28;20198;-59
2023/10/06 05:46:20;;;;;;;5.70;5.20;;;;;;;4.87;100.00;98030.91;5058834;28;20308;-59
2023/10/06 05:48:50;;;;;;;7.33;5.57;;;;;;;4.87;100.00;98032.69;4937330;28;21950;-57
2023/10/06 05:51:21;;;;;;;5.73;5.07;;;;;;;4.93;100.00;98033.03;5060740;28;20935;-59
2023/10/06 05:53:49;;;;;;;6.70;5.53;;;;;;;4.95;100.00;98032.06;5055240;28;20327;-59
2023/10/06 05:56:19;;;;;;;5.87;5.37;;;;;;;4.93;100.00;98030.41;5054422;28;20219;-60
2023/10/06 05:58:47;;;;;;;5.43;4.90;;;;;;;4.96;100.00;98028.47;5020211;28;20292;-59
2023/10/06 06:01:18;;;;;;;5.70;5.30;;;;;;;5.00;100.00;98032.50;5061539;28;20207;-59
2023/10/06 06:03:47;;;;;;;6.17;5.67;;;;;;;5.07;100.00;98037.13;5006940;28;20207;-60
2023/10/06 06:06:16;;;;;;;6.20;5.70;;;;;;;5.11;100.00;98040.31;5028968;28;21004;-59
2023/10/06 06:08:47;;;;;;;6.47;5.30;;;;;;;5.13;100.00;98042.84;5035570;28;21016;-55
2023/10/06 06:11:17;;;;;;;13.43;5.30;;;;;;;5.19;100.00;98045.78;5029897;28;20317;-59
2023/10/06 06:13:45;;;;;;;5.50;5.10;;;;;;;5.29;100.00;98043.22;5037050;28;20735;-57
2023/10/06 06:16:24;;;;;;;5.70;5.20;;;;;;;5.43;100.00;98044.66;5055289;28;20233;-60
2023/10/06 06:18:52;;;;;;;6.03;5.53;;;;;;;5.47;100.00;98046.06;5061390;28;20293;-58
2023/10/06 06:21:24;;;;;;;5.10;4.70;;;;;;;5.59;100.00;98054.72;4983970;28;20353;-58
2023/10/06 06:23:55;;;;;;;5.63;5.17;;;;;;;5.71;100.00;98059.91;5046830;28;20206;-58
2023/10/06 06:26:24;;;;;;;6.60;5.10;;;;;;;5.70;100.00;98064.31;5060426;28;20217;-58
2023/10/06 06:28:52;;;;;;;5.67;5.13;;;;;;;5.71;100.00;98063.34;5057467;28;20388;-56
2023/10/06 06:31:21;;;;;;;5.33;4.93;;;;;;;5.72;100.00;98065.03;5041257;28;20202;-58
2023/10/06 06:33:56;;;;;;;5.23;4.73;;;;;;;5.83;100.00;98064.09;5043561;28;20231;-57
2023/10/06 06:36:26;;;;;;;5.23;4.83;;;;;;;6.01;100.00;98061.72;5028467;28;22077;-58
2023/10/06 06:38:54;;;;;;;5.80;5.20;;;;;;;6.12;100.00;98073.09;5048747;28;20272;-55
2023/10/06 06:41:22;;;;;;;4.93;4.60;;;;;;;6.15;100.00;98065.78;5030920;28;20207;-58
2023/10/06 06:43:57;;;;;;;5.20;4.80;;;;;;;6.26;100.00;98066.63;5052139;28;20202;-59
2023/10/06 06:46:26;;;;;;;6.17;4.70;;;;;;;6.43;100.00;98060.69;5056410;28;20311;-59
2023/10/06 06:48:55;;;;;;;4.33;4.03;;;;;;;6.54;100.00;98058.94;5061006;28;20207;-60
2023/10/06 06:51:27;;;;;;;4.83;4.43;;;;;;;6.40;100.00;98049.63;4971113;28;21646;-57
2023/10/06 06:53:56;;;;;;;4.73;4.43;;;;;;;6.45;100.00;98060.56;5047203;28;20223;-60
2023/10/06 06:56:24;;;;;;;4.50;4.10;;;;;;;6.46;100.00;98052.56;5058487;28;20807;-60
2023/10/06 06:58:52;;;;;;;5.33;4.93;;;;;;;6.43;100.00;98058.06;5065155;28;20767;-60
2023/10/06 07:01:20;;;;;;;6.07;5.33;;;;;;;6.59;100.00;98052.28;5044559;28;20627;-59
2023/10/06 07:03:48;;;;;;;5.23;4.73;;;;;;;6.94;100.00;98060.63;5041218;28;20194;-58
2023/10/06 07:06:17;;;;;;;8.17;5.87;;;;;;;7.04;100.00;98052.72;5023972;28;20238;-60
2023/10/06 07:08:45;;;;;;;6.27;5.77;;;;;;;7.17;100.00;98049.75;5042681;28;20260;-60
2023/10/06 07:11:15;;;;;;;6.43;5.83;;;;;;;7.34;100.00;98037.66;5041590;28;20295;-57
2023/10/06 07:13:45;;;;;;;9.97;6.63;;;;;;;7.28;100.00;98046.16;5039096;28;20219;-60
2023/10/06 07:16:14;;;;;;;7.83;5.37;;;;;;;7.36;100.00;98035.72;5059243;28;20230;-60
2023/10/06 07:18:42;;;;;;;7.30;6.07;;;;;;;7.59;100.00;98041.50;5065171;28;20207;-57
2023/10/06 07:21:10;;;;;;;6.93;6.33;;;;;;;7.70;100.00;98047.56;5064272;28;20199;-58
2023/10/06 07:23:39;;;;;;;6.67;6.07;;;;;;;7.46;100.00;98041.81;5058812;28;20209;-55
2023/10/06 07:26:11;;;;;;;7.93;7.13;;;;;;;7.74;100.00;98051.59;5016268;28;20227;-58
2023/10/06 07:28:39;;;;;;;7.67;6.53;;;;;;;7.59;100.00;98056.47;4997457;28;20207;-60
2023/10/06 07:31:12;;;;;;;7.03;6.23;;;;;;;7.93;100.00;98058.59;5053417;28;20524;-59
2023/10/06 07:33:41;;;;;;;7.43;6.73;;;;;;;8.11;100.00;98058.66;5052785;28;20229;-58
2023/10/06 07:36:13;;;;;;;6.90;6.30;;;;;;;8.28;100.00;98045.63;5047586;28;20223;-57
2023/10/06 07:38:42;;;;;;;7.07;6.37;;;;;;;8.05;100.00;98038.13;5028891;28;20203;-57
2023/10/06 07:41:17;;;;;;;5.87;5.43;;;;;;;7.78;100.00;98037.13;5037378;28;20200;-59
2023/10/06 07:43:48;;;;;;;6.13;5.63;;;;;;;7.92;100.00;98035.81;5042218;28;20257;-58
2023/10/06 07:46:16;;;;;;;6.30;5.73;;;;;;;7.90;100.00;98033.31;5057332;28;20774;-60
2023/10/06 07:48:45;;;;;;;7.47;5.83;;;;;;;8.26;100.00;98029.94;5061325;28;20309;-57
2023/10/06 07:51:14;;;;;;;8.23;7.53;;;;;;;8.09;100.00;98032.38;5059988;28;20202;-57
2023/10/06 07:53:43;;;;;;;6.73;6.10;;;;;;;7.89;100.00;98025.56;5064617;28;20308;-58
2023/10/06 07:56:14;;;;;;;6.97;6.37;;;;;;;8.39;100.00;98022.50;5059090;28;20226;-57
2023/10/06 07:58:42;;;;;;;7.10;6.50;;;;;;;8.78;100.00;98020.56;5060303;28;20725;-56
2023/10/06 08:01:12;;;;;;;7.27;6.67;;;;;;;8.67;100.00;98022.47;5022189;28;20199;-57
2023/10/06 08:03:41;;;;;;;6.40;5.87;;;;;;;8.72;100.00;98024.66;5013261;28;20713;-55
2023/10/06 08:06:10;;;;;;;7.03;6.43;;;;;;;9.33;100.00;98021.31;5064467;28;20223;-58
2023/10/06 08:08:39;;;;;;;7.07;6.37;;;;;;;9.03;100.00;98015.50;4994663;28;20207;-57
2023/10/06 08:11:09;;;;;;;7.33;6.73;;;;;;;9.39;100.00;98016.22;5060590;28;20222;-58
2023/10/06 08:13:38;;;;;;;6.70;6.10;;;;;;;9.43;100.00;98016.75;5005116;28;20223;-57
2023/10/06 08:16:06;;;;;;;7.37;6.77;;;;;;;9.25;100.00;98024.75;5057664;28;20722;-57
2023/10/06 08:18:35;;;;;;;7.53;6.80;;;;;;;9.52;100.00;98025.56;5060603;28;20189;-59
2023/10/06 08:21:03;;;;;;;8.23;7.43;;;;;;;9.60;100.00;98040.66;5062737;28;20213;-59
2023/10/06 08:23:31;;;;;;;7.03;6.40;;;;;;;9.55;100.00;98041.13;5055046;28;20202;-57
2023/10/06 08:26:00;;;;;;;7.77;7.07;;;;;;;9.59;100.00;98039.84;5061450;28;20230;-57
2023/10/06 08:28:31;;;;;;;7.43;6.83;;;;;;;9.87;100.00;98044.94;5058605;28;20720;-58
2023/10/06 08:31:00;;;;;;;7.77;6.97;;;;;;;10.08;100.00;98051.63;5065163;28;20203;-56
2023/10/06 08:33:28;;;;;;;9.00;7.47;;;;;;;10.44;100.00;98054.09;4936288;28;20219;-59
2023/10/06 08:35:57;;;;;;;8.30;7.43;;;;;;;10.60;100.00;98060.44;5059733;28;20841;-57
2023/10/06 08:38:25;;;;;;;9.13;8.23;;;;;;;10.71;100.00;98068.09;5008772;28;20211;-58
2023/10/06 08:40:56;;;;;;;9.87;8.87;;;;;;;10.92;100.00;98070.28;5060508;28;20223;-57
2023/10/06 08:43:27;;;;;;;9.33;8.37;;;;;;;11.13;100.00;98067.13;5010058;28;20202;-59
2023/10/06 08:45:59;;;;;;;8.50;6.60;;;;;;;11.22;100.00;98060.00;5062407;28;20305;-60
2023/10/06 08:48:31;;;;;;;9.63;8.63;;;;;;;11.25;100.00;98066.78;5006547;28;20217;-56
2023/10/06 08:51:03;;;;;;;10.47;7.70;;;;;;;10.95;100.00;98056.69;5062090;28;20199;-57
2023/10/06 08:53:32;;;;;;;9.30;8.40;;;;;;;11.05;100.00;98053.88;5053423;28;20204;-56
2023/10/06 08:56:00;;;;;;;9.00;8.10;;;;;;;11.20;100.00;98046.09;5055728;28;20199;-59
2023/10/06 08:58:29;;;;;;;9.30;8.30;;;;;;;11.25;100.00;98038.44;5059827;28;20202;-59
2023/10/06 09:00:59;;;;;;;11.50;7.70;;;;;;;11.41;100.00;98036.75;5056650;28;20207;-59
2023/10/06 09:03:27;;;;;;;9.07;7.70;;;;;;;11.40;100.00;98043.91;4961399;28;20297;-57
2023/10/06 09:05:55;;;;;;;9.70;8.30;;;;;;;11.60;100.00;98035.56;5060493;28;20313;-55
2023/10/06 09:08:23;;;;;;;8.77;7.97;;;;;;;11.74;100.00;98034.03;5057109;28;20234;-60
2023/10/06 09:10:54;;;;;;;9.23;8.17;;;;;;;12.01;100.00;98032.00;5064438;28;20202;-58
2023/10/06 09:13:22;;;;;;;12.73;8.27;;;;;;;12.07;100.00;98026.00;5000605;28;20695;-59
2023/10/06 09:15:59;;;;;;;11.70;8.70;;;;;;;12.34;100.00;98029.19;5053228;28;20292;-59
2023/10/06 09:18:28;;;;;;;11.90;7.53;;;;;;;12.12;100.00;98031.59;5002573;28;20226;-59
2023/10/06 09:20:57;;;;;;;11.83;8.07;;;;;;;12.41;100.00;98043.44;5057280;28;20726;-59
2023/10/06 09:23:36;;;;;;;8.37;7.70;;;;;;;12.57;100.00;98047.81;4991041;28;20214;-57
2023/10/06 09:26:07;;;;;;;8.70;7.57;;;;;;;12.64;100.00;98036.47;5052704;28;20204;-57
2023/10/06 09:28:36;;;;;;;8.60;7.03;;;;;;;12.43;100.00;98024.63;5018964;28;21915;-59
2023/10/06 09:31:05;;;;;;;9.80;7.70;;;;;;;12.50;100.00;98014.13;5038349;28;20203;-56
2023/10/06 09:33:44;;;;;;;11.00;7.27;;;;;;;12.37;100.00;98012.88;4997416;28;21147;-57
2023/10/06 09:36:17;;;;;;;9.10;7.70;;;;;;;12.56;100.00;98010.78;5045368;28;20341;-59
2023/10/06 09:39:06;;;;;;;10.03;8.20;;;;;;;12.73;100.00;98008.81;5002193;28;20214;-58
2023/10/06 09:41:34;;;;;;;9.60;8.30;;;;;;;12.72;100.00;98013.34;5061137;28;20245;-60
2023/10/06 09:44:05;;;;;;;9.63;7.80;;;;;;;12.78;100.00;98003.81;5057688;28;20230;-60
2023/10/06 09:46:35;;;;;;;15.83;8.30;;;;;;;12.70;100.00;98004.72;5052087;28;21059;-57
2023/10/06 09:49:05;;;;;;;12.40;7.13;;;;;;;13.01;100.00;97998.47;5007029;28;21305;-59
2023/10/06 09:51:36;;;;;;;10.70;7.07;;;;;;;13.14;100.00;97989.88;5060376;28;20322;-59
2023/10/06 09:54:05;;;;;;;7.20;6.57;;;;;;;13.29;100.00;97987.22;5001851;28;20346;-60
2023/10/06 09:56:33;;;;;;;8.27;5.97;;;;;;;13.51;100.00;97994.53;5057085;28;20317;-58
2023/10/06 09:59:01;;;;;;;8.73;6.10;;;;;;;13.63;100.00;97998.38;5055100;28;20202;-60
2023/10/06 10:01:31;;;;;;;11.20;7.07;;;;;;;13.71;100.00;97986.81;5057754;28;20211;-59
2023/10/06 10:04:02;;;;;;;8.03;5.60;;;;;;;13.86;100.00;97987.66;4937398;28;21777;-59
2023/10/06 10:06:30;;;;;;;11.73;7.10;;;;;;;13.88;100.00;97974.97;5064344;28;20227;-59
2023/10/06 10:08:58;;;;;;;7.27;6.60;;;;;;;13.95;100.00;97979.56;5059512;28;20194;-57
2023/10/06 10:11:29;;;;;;;7.20;5.70;;;;;;;13.84;100.00;97972.84;4992154;28;20589;-59
2023/10/06 10:14:22;;;;;;;8.50;5.97;;;;;;;13.85;100.00;97979.84;5053052;28;20202;-58
2023/10/06 10:17:04;;;;;;;10.20;6.87;;;;;;;13.92;100.00;97979.94;5047757;28;20243;-58
2023/10/06 10:19:36;;;;;;;8.90;5.30;;;;;;;13.81;100.00;97968.72;5061015;28;20195;-60
2023/10/06 10:22:04;;;;;;;7.70;6.03;;;;;;;13.93;100.00;97969.06;5012932;28;20210;-58
2023/10/06 10:24:36;;;;;;;7.47;6.03;;;;;;;14.10;100.00;97972.34;5055465;28;20328;-58
2023/10/06 10:27:13;;;;;;;8.43;5.70;;;;;;;14.27;100.00;97978.28;5015278;28;20222;-58
2023/10/06 10:29:41;;;;;;;8.77;5.77;;;;;;;14.45;100.00;97969.06;5010440;28;20238;-60
2023/10/06 10:32:13;;;;;;;6.80;6.00;;;;;;;14.56;100.00;97965.88;5049187;28;20211;-57
2023/10/06 10:35:09;;;;;;;7.80;6.40;;;;;;;14.50;100.00;97966.63;4966044;28;20459;-59
2023/10/06 10:37:56;;;;;;;9.83;5.83;;;;;;;14.57;100.00;97964.84;5058688;28;21552;-57
2023/10/06 10:40:25;;;;;;;7.13;5.63;;;;;;;14.55;100.00;97950.03;5051800;28;20206;-57
2023/10/06 10:42:57;;;;;;;8.63;6.50;;;;;;;14.58;100.00;97947.84;5059184;28;20286;-58
2023/10/06 10:45:30;;;;;;;7.33;5.87;;;;;;;14.72;100.00;97943.47;5005665;28;20210;-59
2023/10/06 10:47:59;;;;;;;6.07;5.23;;;;;;;14.92;100.00;97928.66;5055204;28;20250;-60
2023/10/06 10:50:43;;;;;;;6.60;5.60;;;;;;;14.87;100.00;97916.72;5059889;28;20203;-55
2023/10/06 10:53:11;;;;;;;7.43;5.07;;;;;;;15.10;100.00;97912.16;5057880;28;20214;-55
2023/10/06 10:55:39;;;;;;;6.13;5.33;;;;;;;15.21;100.00;97913.47;5005387;28;20241;-57
2023/10/06 10:58:07;;;;;;;6.33;4.70;;;;;;;15.27;100.00;97907.34;5057644;28;20246;-56
2023/10/06 11:00:35;;;;;;;7.17;4.50;;;;;;;15.28;100.00;97917.81;5001951;28;20215;-55
2023/10/06 11:03:04;;;;;;;6.40;4.80;;;;;;;15.19;100.00;97911.81;5058568;28;20221;-56
2023/10/06 11:05:34;;;;;;;6.67;4.53;;;;;;;15.47;100.00;97902.09;4927523;28;20207;-56
2023/10/06 11:08:02;;;;;;;10.20;4.90;;;;;;;15.55;100.00;97893.91;5064080;28;20230;-56
2023/10/06 11:10:32;;;;;;;6.70;4.40;;;;;;;15.63;100.00;97892.94;5060695;28;20203;-55
2023/10/06 11:13:15;;;;;;;9.57;5.10;;;;;;;15.68;100.00;97892.31;5062239;28;20290;-57
2023/10/06 11:15:43;;;;;;;8.83;5.57;;;;;;;15.74;100.00;97872.84;5059657;28;20718;-60
2023/10/06 11:18:13;;;;;;;8.07;4.50;;;;;;;15.30;100.00;97870.38;5065806;28;20246;-58
2023/10/06 11:20:42;;;;;;;7.07;5.13;;;;;;;15.72;100.00;97862.34;5011955;28;20637;-59
2023/10/06 11:23:10;;;;;;;9.97;4.90;;;;;;;16.04;100.00;97861.84;4995198;28;20826;-56
2023/10/06 11:25:48;;;;;;;5.97;4.80;;;;;;;16.02;100.00;97854.03;5060050;28;20696;-59
2023/10/06 11:28:16;;;;;;;5.03;4.57;;;;;;;16.24;100.00;97850.38;5010072;28;20712;-58
2023/10/06 11:30:43;;;;;;;7.33;4.70;;;;;;;16.19;100.00;97851.81;5061328;28;20203;-59
2023/10/06 11:33:13;;;;;;;6.13;4.37;;;;;;;16.34;100.00;97848.09;5009284;28;20215;-58
2023/10/06 11:35:42;;;;;;;8.80;5.20;;;;;;;16.34;100.00;97851.63;5064673;28;20222;-58
2023/10/06 11:38:12;;;;;;;6.73;5.43;;;;;;;16.59;100.00;97847.50;4929433;28;20318;-59
2023/10/06 11:40:42;;;;;;;7.43;5.80;;;;;;;16.54;100.00;97852.66;5063817;28;20207;-60
2023/10/06 11:43:11;;;;;;;5.63;5.13;;;;;;;16.41;100.00;97856.13;5061265;28;20198;-57
2023/10/06 11:45:41;;;;;;;8.57;6.07;;;;;;;16.63;100.00;97848.72;5062194;28;20199;-59
2023/10/06 11:48:24;;;;;;;6.83;5.30;;;;;;;16.78;100.00;97848.53;5059891;28;20219;-59